createdAt,value
2019-05-18T00:02:03.981Z,80.72
2019-05-18T00:04:33.052Z,80.86
2019-05-18T00:07:02.099Z,80.95
2019-05-18T00:09:30.910Z,81.81
2019-05-18T00:11:59.690Z,82.39
2019-05-18T00:14:28.552Z,83.06
2019-05-18T00:16:57.514Z,83.46
2019-05-18T00:19:26.294Z,83.19
2019-05-18T00:21:55.041Z,83.96
2019-05-18T00:24:23.811Z,84.13
2019-05-18T00:26:52.613Z,84.27
2019-05-18T00:29:21.377Z,84.91
2019-05-18T00:31:50.130Z,85.46
2019-05-18T00:34:19.014Z,86.23
2019-05-18T00:36:47.794Z,86.39
2019-05-18T00:39:16.651Z,86.13
2019-05-18T00:41:45.683Z,86.70
2019-05-18T00:44:14.430Z,86.90
2019-05-18T00:46:43.204Z,87.20
2019-05-18T00:49:13.137Z,86.94
2019-05-18T00:51:41.921Z,87.45
2019-05-18T00:54:10.730Z,87.52
2019-05-18T00:56:39.602Z,87.31
2019-05-18T00:59:08.405Z,87.07
2019-05-18T01:01:37.386Z,88.30
2019-05-18T01:04:06.141Z,88.05
2019-05-18T01:06:34.905Z,88.27
2019-05-18T01:09:05.549Z,87.93
2019-05-18T01:11:34.394Z,88.33
2019-05-18T01:14:03.385Z,88.44
2019-05-18T01:16:32.141Z,88.74
2019-05-18T01:19:01.004Z,88.45
2019-05-18T01:21:29.757Z,88.83
2019-05-18T01:23:58.493Z,89.09
2019-05-18T01:26:27.320Z,89.09
2019-05-18T01:28:59.030Z,89.47
2019-05-18T01:31:27.791Z,88.82
2019-05-18T01:33:56.605Z,89.02
2019-05-18T01:36:25.380Z,89.51
2019-05-18T01:38:54.128Z,89.56
2019-05-18T01:41:23.009Z,89.03
2019-05-18T01:43:51.764Z,89.36
2019-05-18T01:46:21.381Z,89.37
2019-05-18T01:48:50.225Z,89.33
2019-05-18T01:51:19.579Z,89.37
2019-05-18T01:53:48.483Z,90.17
2019-05-18T01:56:17.243Z,90.23
2019-05-18T01:58:46.183Z,90.41
2019-05-18T02:01:15.057Z,90.04
2019-05-18T02:03:43.977Z,90.13
2019-05-18T02:06:12.903Z,90.32
2019-05-18T02:08:41.646Z,89.78
2019-05-18T02:11:10.416Z,90.86
2019-05-18T02:13:39.264Z,91.51
2019-05-18T02:16:08.020Z,91.78
2019-05-18T02:18:36.903Z,92.10
2019-05-18T02:21:05.998Z,91.76
2019-05-18T02:23:34.758Z,91.64
2019-05-18T02:26:05.892Z,91.66
2019-05-18T02:28:34.739Z,91.70
2019-05-18T02:31:03.744Z,91.53
2019-05-18T02:33:32.492Z,91.51
2019-05-18T02:36:01.322Z,91.66
2019-05-18T02:38:30.122Z,91.92
2019-05-18T02:40:58.894Z,92.09
2019-05-18T02:43:27.684Z,91.74
2019-05-18T02:45:56.802Z,91.26
2019-05-18T02:48:25.569Z,91.87
2019-05-18T02:50:54.353Z,93.11
2019-05-18T02:53:23.248Z,93.85
2019-05-18T02:55:52.028Z,94.40
2019-05-18T02:58:20.907Z,94.28
2019-05-18T03:00:49.710Z,94.23
2019-05-18T03:03:18.537Z,94.72
2019-05-18T03:05:47.515Z,94.94
2019-05-18T03:08:16.264Z,95.12
2019-05-18T03:10:45.380Z,95.38
2019-05-18T03:13:14.297Z,96.09
2019-05-18T03:15:43.075Z,96.14
2019-05-18T03:18:11.951Z,95.70
2019-05-18T03:20:40.870Z,95.20
2019-05-18T03:23:09.625Z,94.98
2019-05-18T03:25:38.378Z,94.67
2019-05-18T03:28:07.214Z,94.52
2019-05-18T03:30:36.039Z,94.13
2019-05-18T03:33:05.498Z,93.81
2019-05-18T03:35:36.326Z,93.65
2019-05-18T03:38:05.938Z,94.21
2019-05-18T03:40:37.050Z,94.33
2019-05-18T03:43:06.621Z,94.10
2019-05-18T03:45:35.455Z,93.37
2019-05-18T03:48:05.261Z,92.74
2019-05-18T03:50:34.302Z,94.08
2019-05-18T03:53:04.255Z,94.55
2019-05-18T03:55:33.195Z,94.90
2019-05-18T03:58:01.959Z,94.08
2019-05-18T04:00:30.719Z,93.34
2019-05-18T04:03:00.391Z,92.59
2019-05-18T04:05:29.126Z,92.84
2019-05-18T04:07:58.053Z,93.03
2019-05-18T04:10:27.909Z,92.68
2019-05-18T04:12:56.636Z,92.11
2019-05-18T04:15:25.599Z,92.03
2019-05-18T04:17:54.340Z,90.98
2019-05-18T04:20:23.098Z,90.55
2019-05-18T04:22:51.941Z,89.87
2019-05-18T04:25:20.691Z,89.88
2019-05-18T04:27:49.604Z,90.00
2019-05-18T04:30:18.360Z,89.73
2019-05-18T04:32:47.139Z,89.97
2019-05-18T04:35:16.046Z,83.79
2019-05-18T04:37:44.786Z,80.86
2019-05-18T04:40:14.845Z,80.86
2019-05-18T04:42:43.593Z,68.99
2019-05-18T04:45:13.040Z,63.35
2019-05-18T04:47:41.834Z,60.59
2019-05-18T04:50:10.687Z,56.04
2019-05-18T04:52:39.486Z,54.72
2019-05-18T04:55:08.819Z,53.13
2019-05-18T04:57:37.626Z,51.29
2019-05-18T05:00:08.853Z,50.99
2019-05-18T05:02:37.662Z,49.34
2019-05-18T05:05:08.093Z,48.97
2019-05-18T05:07:36.936Z,47.81
2019-05-18T05:10:07.359Z,46.65
2019-05-18T05:12:36.111Z,46.03
2019-05-18T05:15:06.804Z,45.50
2019-05-18T05:17:35.634Z,43.04
2019-05-18T05:22:40.862Z,40.39
2019-05-18T05:25:10.025Z,38.24
2019-05-18T05:27:38.781Z,38.82
2019-05-18T05:30:12.114Z,38.07
2019-05-18T05:32:41.204Z,38.07
2019-05-18T05:35:10.445Z,39.07
2019-05-18T05:37:39.487Z,39.35
2019-05-18T05:40:08.468Z,38.82
2019-05-18T05:42:37.514Z,36.61
2019-05-18T05:45:08.158Z,37.12
2019-05-18T05:47:36.989Z,36.56
2019-05-18T05:50:10.094Z,36.81
2019-05-18T05:52:39.113Z,38.08
2019-05-18T05:55:10.005Z,40.10
2019-05-18T05:57:39.210Z,42.91
2019-05-18T06:00:10.559Z,41.21
2019-05-18T06:02:39.685Z,40.76
2019-05-18T06:05:09.490Z,43.30
2019-05-18T06:07:38.318Z,41.88
2019-05-18T06:10:08.170Z,42.20
2019-05-18T06:12:37.019Z,42.38
2019-05-18T06:15:08.462Z,45.17
2019-05-18T06:17:37.255Z,46.43
2019-05-18T06:20:08.430Z,46.69
2019-05-18T06:22:37.254Z,45.97
2019-05-18T06:25:07.402Z,46.36
2019-05-18T06:27:36.422Z,47.43
2019-05-18T06:30:08.495Z,45.44
2019-05-18T06:32:37.402Z,43.59
2019-05-18T06:35:06.313Z,42.19
2019-05-18T06:37:35.084Z,41.11
2019-05-18T06:40:05.605Z,44.10
2019-05-18T06:42:35.029Z,45.10
2019-05-18T06:45:06.629Z,44.82
2019-05-18T06:47:37.937Z,44.13
2019-05-18T06:50:12.765Z,45.76
2019-05-18T06:52:42.617Z,46.22
2019-05-18T06:55:17.211Z,49.18
2019-05-18T06:57:46.085Z,49.11
2019-05-18T07:00:16.938Z,47.52
2019-05-18T07:02:45.913Z,48.83
2019-05-18T07:05:14.932Z,47.12
2019-05-18T07:07:43.978Z,48.59
2019-05-18T07:10:13.069Z,50.06
2019-05-18T07:12:42.267Z,48.76
2019-05-18T07:15:11.848Z,49.31
2019-05-18T07:17:40.557Z,47.18
2019-05-18T07:20:09.660Z,48.18
2019-05-18T07:22:38.541Z,46.89
2019-05-18T07:25:08.902Z,47.45
2019-05-18T07:27:37.719Z,47.68
2019-05-18T07:30:11.938Z,48.26
2019-05-18T07:32:40.889Z,49.02
2019-05-18T07:35:11.939Z,49.80
2019-05-18T07:37:40.798Z,50.09
2019-05-18T07:40:09.973Z,48.33
2019-05-18T07:42:40.389Z,46.90
2019-05-18T07:45:10.405Z,45.29
2019-05-18T07:47:39.376Z,44.67
2019-05-18T07:50:08.450Z,44.57
2019-05-18T07:52:37.451Z,45.08
2019-05-18T07:55:08.098Z,45.28
2019-05-18T07:57:36.891Z,44.74
2019-05-18T08:00:10.395Z,44.13
2019-05-18T08:02:39.216Z,44.15
2019-05-18T08:05:09.309Z,43.91
2019-05-18T08:07:38.168Z,44.38
2019-05-18T08:10:08.594Z,43.86
2019-05-18T08:12:37.434Z,44.20
2019-05-18T08:15:12.100Z,44.05
2019-05-18T08:17:41.061Z,44.72
2019-05-18T08:20:10.151Z,45.95
2019-05-18T08:22:38.908Z,44.47
2019-05-18T08:25:09.131Z,42.58
2019-05-18T08:27:38.033Z,44.25
2019-05-18T08:30:08.835Z,41.75
2019-05-18T08:32:38.478Z,40.55
2019-05-18T08:35:12.118Z,39.86
2019-05-18T08:37:41.369Z,38.29
2019-05-18T08:40:12.090Z,38.02
2019-05-18T08:42:40.979Z,37.00
2019-05-18T08:45:11.008Z,37.84
2019-05-18T08:47:39.958Z,38.53
2019-05-18T08:50:09.934Z,37.79
2019-05-18T08:52:38.848Z,37.59
2019-05-18T08:55:09.862Z,40.27
2019-05-18T08:57:39.211Z,41.26
2019-05-18T09:00:10.137Z,40.83
2019-05-18T09:02:38.999Z,41.23
2019-05-18T09:05:07.998Z,38.64
2019-05-18T09:07:36.871Z,40.14
2019-05-18T09:10:10.054Z,39.64
2019-05-18T09:12:38.973Z,40.09
2019-05-18T09:15:09.089Z,38.91
2019-05-18T09:17:38.165Z,38.79
2019-05-18T09:20:09.733Z,38.64
2019-05-18T09:22:38.793Z,38.77
2019-05-18T09:25:08.447Z,37.50
2019-05-18T09:27:37.361Z,37.31
2019-05-18T09:30:16.446Z,38.14
2019-05-18T09:32:59.209Z,36.26
2019-05-18T09:35:28.633Z,36.92
2019-05-18T09:37:59.803Z,36.78
2019-05-18T09:40:28.334Z,36.42
2019-05-18T09:42:57.347Z,35.37
2019-05-18T09:45:26.252Z,35.66
2019-05-18T09:47:55.371Z,36.44
2019-05-18T09:50:24.529Z,36.45
2019-05-18T09:52:53.556Z,34.70
2019-05-18T09:55:22.509Z,34.59
2019-05-18T09:57:51.539Z,35.04
2019-05-18T10:00:22.228Z,35.34
2019-05-18T10:02:53.175Z,35.79
2019-05-18T10:05:22.170Z,35.31
2019-05-18T10:07:51.053Z,34.46
2019-05-18T10:10:20.153Z,33.83
2019-05-18T10:12:49.488Z,35.00
2019-05-18T10:15:19.014Z,35.30
2019-05-18T10:17:51.471Z,36.46
2019-05-18T10:20:20.795Z,34.66
2019-05-18T10:22:59.219Z,35.56
2019-05-18T10:25:21.810Z,38.16
2019-05-18T10:27:50.745Z,35.56
2019-05-18T10:30:21.341Z,36.09
2019-05-18T10:32:50.288Z,35.89
2019-05-18T10:35:19.186Z,36.96
2019-05-18T10:37:54.394Z,37.70
2019-05-18T10:40:23.189Z,38.96
2019-05-18T10:42:52.359Z,38.15
2019-05-18T10:45:25.657Z,35.13
2019-05-18T10:47:55.329Z,37.35
2019-05-18T10:50:27.868Z,38.71
2019-05-18T10:52:56.713Z,37.42
2019-05-18T10:55:26.073Z,36.84
2019-05-18T10:57:56.621Z,36.38
2019-05-18T11:00:25.379Z,36.66
2019-05-18T11:02:54.277Z,38.01
2019-05-18T11:05:26.162Z,37.61
2019-05-18T11:07:55.161Z,34.34
2019-05-18T11:10:27.046Z,36.58
2019-05-18T11:12:56.060Z,37.46
2019-05-18T11:15:25.100Z,35.57
2019-05-18T11:17:53.899Z,34.87
2019-05-18T11:20:22.962Z,34.97
2019-05-18T11:22:51.858Z,35.23
2019-05-18T11:25:21.540Z,33.45
2019-05-18T11:27:50.440Z,34.56
2019-05-18T11:30:20.625Z,35.04
2019-05-18T11:32:49.599Z,33.45
2019-05-18T11:35:19.930Z,32.43
2019-05-18T11:37:48.738Z,32.05
2019-05-18T11:40:18.636Z,32.16
2019-05-18T11:42:47.601Z,33.16
2019-05-18T11:45:18.980Z,34.55
2019-05-18T11:47:47.905Z,33.26
2019-05-18T11:50:18.110Z,33.94
2019-05-18T11:52:46.895Z,33.72
2019-05-18T11:55:16.130Z,34.33
2019-05-18T11:57:44.949Z,32.07
2019-05-18T12:00:15.866Z,31.77
2019-05-18T12:02:44.759Z,31.18
2019-05-18T12:05:15.949Z,30.66
2019-05-18T12:07:44.736Z,32.62
2019-05-18T12:10:13.832Z,31.05
2019-05-18T12:12:42.709Z,32.57
2019-05-18T12:15:13.929Z,29.45
2019-05-18T12:17:42.729Z,30.83
2019-05-18T12:20:13.024Z,30.97
2019-05-18T12:22:41.877Z,30.30
2019-05-18T12:25:10.917Z,31.79
2019-05-18T12:27:40.078Z,32.09
2019-05-18T12:30:13.386Z,31.79
2019-05-18T12:32:42.307Z,33.81
2019-05-18T12:35:12.100Z,31.49
2019-05-18T12:37:41.024Z,30.09
2019-05-18T12:40:12.770Z,29.20
2019-05-18T12:42:41.620Z,27.45
2019-05-18T12:45:11.160Z,27.46
2019-05-18T12:47:40.018Z,28.26
2019-05-18T12:50:11.258Z,29.79
2019-05-18T12:52:40.127Z,30.21
2019-05-18T12:55:11.305Z,30.21
2019-05-18T12:57:40.299Z,28.24
2019-05-18T13:00:11.432Z,26.77
2019-05-18T13:02:41.036Z,25.73
2019-05-18T13:05:12.269Z,26.64
2019-05-18T13:07:41.669Z,24.66
2019-05-18T13:10:12.338Z,26.28
2019-05-18T13:12:41.129Z,25.98
2019-05-18T13:15:12.782Z,26.40
2019-05-18T13:17:41.892Z,26.15
2019-05-18T13:20:12.980Z,27.21
2019-05-18T13:22:41.934Z,27.21
2019-05-18T13:25:13.251Z,28.21
2019-05-18T13:27:42.072Z,30.73
2019-05-18T13:30:13.324Z,30.17
2019-05-18T13:32:42.233Z,30.31
2019-05-18T13:35:13.141Z,31.90
2019-05-18T13:37:42.203Z,32.22
2019-05-18T13:40:15.708Z,31.73
2019-05-18T13:42:44.779Z,32.22
2019-05-18T13:45:17.256Z,33.39
2019-05-18T13:47:46.164Z,32.08
2019-05-18T13:50:16.082Z,28.50
2019-05-18T13:52:44.995Z,27.43
2019-05-18T13:55:14.188Z,29.70
2019-05-18T13:57:43.018Z,28.52
2019-05-18T14:00:11.992Z,31.25
2019-05-18T14:02:40.827Z,31.25
2019-05-18T14:05:10.781Z,32.10
2019-05-18T14:07:39.874Z,32.73
2019-05-18T14:10:12.653Z,34.51
2019-05-18T14:12:41.215Z,34.22
2019-05-18T14:15:11.790Z,34.24
2019-05-18T14:17:40.757Z,34.48
2019-05-18T14:20:10.831Z,34.15
2019-05-18T14:22:39.750Z,34.13
2019-05-18T14:25:19.508Z,34.01
2019-05-18T14:27:41.893Z,34.62
2019-05-18T14:30:12.935Z,36.52
2019-05-18T14:32:42.201Z,36.07
2019-05-18T14:35:11.069Z,36.80
2019-05-18T14:37:39.997Z,35.25
2019-05-18T14:40:08.959Z,35.66
2019-05-18T14:42:37.775Z,33.65
2019-05-18T14:45:09.944Z,34.06
2019-05-18T14:47:38.786Z,33.38
2019-05-18T14:50:07.898Z,34.78
2019-05-18T14:52:36.859Z,33.43
2019-05-18T14:55:08.569Z,35.41
2019-05-18T14:57:37.570Z,32.12
2019-05-18T15:00:08.445Z,32.31
2019-05-18T15:02:37.483Z,34.00
2019-05-18T15:05:10.864Z,34.00
2019-05-18T15:07:39.627Z,33.24
2019-05-18T15:10:10.377Z,31.35
2019-05-18T15:12:39.175Z,30.75
2019-05-18T15:15:10.114Z,30.17
2019-05-18T15:17:41.820Z,32.50
2019-05-18T15:20:11.169Z,32.60
2019-05-18T15:22:39.937Z,32.32
2019-05-18T15:25:09.101Z,31.96
2019-05-18T15:27:37.913Z,33.09
2019-05-18T15:30:08.441Z,34.38
2019-05-18T15:32:37.245Z,35.77
2019-05-18T15:35:10.879Z,35.98
2019-05-18T15:37:43.186Z,35.93
2019-05-18T15:40:11.226Z,35.83
2019-05-18T15:42:40.077Z,36.35
2019-05-18T15:45:09.400Z,35.85
2019-05-18T15:47:38.344Z,36.35
2019-05-18T15:50:07.500Z,35.13
2019-05-18T15:52:36.395Z,35.71
2019-05-18T15:55:08.547Z,35.59
2019-05-18T15:57:37.446Z,37.15
2019-05-18T16:00:11.443Z,36.02
2019-05-18T16:02:40.308Z,35.50
2019-05-18T16:05:10.321Z,34.19
2019-05-18T16:07:39.533Z,36.74
2019-05-18T16:10:14.136Z,35.18
2019-05-18T16:12:44.541Z,34.77
2019-05-18T16:15:14.670Z,33.55
2019-05-18T16:17:43.554Z,37.40
2019-05-18T16:20:12.638Z,33.18
2019-05-18T16:22:44.412Z,33.51
2019-05-18T16:25:12.567Z,33.22
2019-05-18T16:27:41.599Z,33.90
2019-05-18T16:30:11.604Z,33.93
2019-05-18T16:32:40.493Z,34.66
2019-05-18T16:35:09.673Z,34.87
2019-05-18T16:37:38.462Z,35.21
2019-05-18T16:40:09.814Z,35.34
2019-05-18T16:42:38.613Z,35.32
2019-05-18T16:45:09.697Z,35.34
2019-05-18T16:47:38.594Z,35.67
2019-05-18T16:50:08.549Z,35.41
2019-05-18T16:52:37.437Z,35.68
2019-05-18T16:55:10.715Z,34.45
2019-05-18T16:57:39.470Z,34.68
2019-05-18T17:00:15.953Z,35.03
2019-05-18T17:02:43.349Z,34.01
2019-05-18T17:05:16.780Z,34.01
2019-05-18T17:07:45.948Z,34.32
2019-05-18T17:10:15.994Z,34.43
2019-05-18T17:12:44.752Z,34.30
2019-05-18T17:15:13.711Z,34.90
2019-05-18T17:17:42.689Z,35.05
2019-05-18T17:20:12.323Z,35.91
2019-05-18T17:22:41.820Z,35.66
2019-05-18T17:25:11.032Z,35.64
2019-05-18T17:27:40.836Z,35.75
2019-05-18T17:30:10.262Z,35.34
2019-05-18T17:32:39.653Z,36.03
2019-05-18T17:35:10.108Z,36.04
2019-05-18T17:37:39.258Z,35.72
2019-05-18T17:40:08.760Z,35.35
2019-05-18T17:42:37.614Z,35.40
2019-05-18T17:45:09.057Z,36.25
2019-05-18T17:47:37.880Z,36.53
2019-05-18T17:50:08.883Z,36.75
2019-05-18T17:52:38.088Z,36.85
2019-05-18T17:55:08.040Z,37.28
2019-05-18T17:57:37.534Z,37.91
2019-05-18T18:00:09.146Z,37.61
2019-05-18T18:02:38.089Z,38.38
2019-05-18T18:05:09.307Z,39.76
2019-05-18T18:07:38.885Z,39.00
2019-05-18T18:10:08.992Z,38.29
2019-05-18T18:12:38.175Z,41.94
2019-05-18T18:15:09.449Z,43.27
2019-05-18T18:17:38.329Z,41.40
2019-05-18T18:20:08.172Z,43.49
2019-05-18T18:22:38.520Z,43.12
2019-05-18T18:25:08.464Z,46.28
2019-05-18T18:27:37.284Z,45.38
2019-05-18T18:30:08.327Z,45.26
2019-05-18T18:32:37.205Z,45.10
2019-05-18T18:35:08.929Z,46.11
2019-05-18T18:37:37.929Z,48.11
2019-05-18T18:40:08.563Z,48.85
2019-05-18T18:42:37.471Z,48.72
2019-05-18T18:45:09.035Z,49.69
2019-05-18T18:47:37.923Z,50.33
2019-05-18T18:50:07.073Z,49.00
2019-05-18T18:52:36.340Z,49.88
2019-05-18T18:55:08.855Z,49.88
2019-05-18T18:57:41.859Z,49.33
2019-05-18T19:00:10.735Z,49.59
2019-05-18T19:02:39.516Z,49.99
2019-05-18T19:05:12.231Z,49.69
2019-05-18T19:07:44.040Z,50.70
2019-05-18T19:10:16.233Z,51.58
2019-05-18T19:12:45.759Z,51.60
2019-05-18T19:15:16.311Z,52.96
2019-05-18T19:17:45.578Z,53.95
2019-05-18T19:20:18.006Z,54.50
2019-05-18T19:22:57.401Z,53.90
2019-05-18T19:25:31.126Z,54.81
2019-05-18T19:28:06.906Z,57.44
2019-05-18T19:30:37.035Z,56.62
2019-05-18T19:33:08.167Z,56.29
2019-05-18T19:35:37.241Z,57.04
2019-05-18T19:38:06.258Z,58.14
2019-05-18T19:40:35.113Z,58.33
2019-05-18T19:43:03.889Z,59.17
2019-05-18T19:45:33.368Z,60.11
2019-05-18T19:48:02.832Z,58.72
2019-05-18T19:50:32.141Z,58.46
2019-05-18T19:53:02.094Z,59.94
2019-05-18T19:55:31.107Z,61.51
2019-05-18T19:58:08.433Z,62.04
2019-05-18T20:00:30.616Z,61.93
2019-05-18T20:02:59.941Z,61.61
2019-05-18T20:05:29.018Z,61.23
2019-05-18T20:07:57.796Z,61.62
2019-05-18T20:10:26.639Z,62.87
2019-05-18T20:12:56.065Z,62.94
2019-05-18T20:15:24.867Z,62.94
2019-05-18T20:17:54.398Z,62.11
2019-05-18T20:20:23.531Z,62.57
2019-05-18T20:22:52.269Z,63.09
2019-05-18T20:25:21.390Z,62.97
2019-05-18T20:27:50.140Z,62.82
2019-05-18T20:30:19.111Z,63.13
2019-05-18T20:32:48.097Z,63.67
2019-05-18T20:35:18.154Z,63.59
2019-05-18T20:37:47.054Z,64.03
2019-05-18T20:40:15.806Z,64.65
2019-05-18T20:42:44.667Z,64.94
2019-05-18T20:45:13.565Z,65.38
2019-05-18T20:47:42.401Z,65.31
2019-05-18T20:50:11.308Z,65.22
2019-05-18T20:52:40.232Z,65.14
2019-05-18T20:55:09.202Z,65.24
2019-05-18T20:57:37.984Z,65.21
2019-05-18T21:00:08.169Z,65.25
2019-05-18T21:02:40.696Z,65.74
2019-05-18T21:05:15.043Z,66.30
2019-05-18T21:07:45.410Z,66.18
2019-05-18T21:10:14.353Z,66.69
2019-05-18T21:12:44.102Z,67.18
2019-05-18T21:15:14.369Z,67.02
2019-05-18T21:17:43.233Z,66.67
2019-05-18T21:20:12.282Z,66.66
2019-05-18T21:22:41.049Z,66.57
2019-05-18T21:25:11.432Z,67.46
2019-05-18T21:27:40.179Z,69.47
2019-05-18T21:30:09.259Z,69.17
2019-05-18T21:32:39.502Z,68.27
2019-05-18T21:35:10.460Z,69.06
2019-05-18T21:37:42.317Z,69.07
2019-05-18T21:40:26.337Z,71.28
2019-05-18T21:42:58.576Z,72.15
2019-05-18T21:45:28.166Z,74.22
2019-05-18T21:47:57.028Z,75.44
2019-05-18T21:50:25.818Z,74.15
2019-05-18T21:52:54.645Z,73.87
2019-05-18T21:55:23.511Z,73.70
2019-05-18T21:57:52.521Z,73.26
2019-05-18T22:00:24.610Z,73.32
2019-05-18T22:02:53.446Z,73.97
2019-05-18T22:05:22.475Z,74.94
2019-05-18T22:07:51.235Z,75.95
2019-05-18T22:10:25.848Z,76.02
2019-05-18T22:12:50.838Z,76.80
2019-05-18T22:15:19.592Z,76.47
2019-05-18T22:18:04.904Z,76.43
2019-05-18T22:20:39.940Z,76.68
2019-05-18T22:23:06.916Z,76.78
2019-05-18T22:25:36.013Z,76.75
2019-05-18T22:28:05.163Z,76.84
2019-05-18T22:30:33.894Z,77.10
2019-05-18T22:33:02.733Z,77.26
2019-05-18T22:35:31.587Z,77.49
2019-05-18T22:38:00.442Z,78.15
2019-05-18T22:40:29.209Z,79.22
2019-05-18T22:42:58.927Z,78.54
2019-05-18T22:45:30.634Z,78.68
2019-05-18T22:47:59.998Z,78.70
2019-05-18T22:50:28.856Z,78.85
2019-05-18T22:52:57.605Z,79.42
2019-05-18T22:55:26.482Z,79.90
2019-05-18T22:57:55.243Z,79.65
2019-05-18T23:00:24.372Z,80.35
2019-05-18T23:02:53.142Z,79.89
2019-05-18T23:05:21.887Z,80.85
2019-05-18T23:07:50.726Z,81.49
2019-05-18T23:10:19.688Z,81.67
2019-05-18T23:12:48.463Z,81.39
2019-05-18T23:15:17.263Z,82.66
2019-05-18T23:17:45.935Z,82.80
2019-05-18T23:20:15.195Z,81.84
2019-05-18T23:22:43.990Z,81.42
2019-05-18T23:25:13.015Z,81.64
2019-05-18T23:27:41.916Z,81.80
2019-05-18T23:30:11.414Z,81.20
2019-05-18T23:32:40.167Z,80.71
2019-05-18T23:35:08.916Z,80.81
2019-05-18T23:37:37.877Z,81.34
2019-05-18T23:40:07.142Z,81.71
2019-05-18T23:42:35.954Z,81.94
2019-05-18T23:45:07.642Z,81.57
2019-05-18T23:47:36.529Z,81.11
2019-05-18T23:50:06.874Z,81.20
2019-05-18T23:52:35.738Z,80.89
2019-05-18T23:55:07.575Z,80.60
2019-05-18T23:57:36.508Z,80.43
